This is the latest recevied weather packets stored in our database for station/object AJ4FJ-13. If no packets are shown the sender has not sent any weather packets the latest 10 day(s).
| Time | Temp. | Humidity | Pressure | Rain* | Wind** | Luminosity | Snow |
|---|---|---|---|---|---|---|---|
| 1777654138 | 22.22° C | 46% | 1015 hPa | 0 mm | 0 m/s | - | - |
| 1777653836 | 21.67° C | 47% | 1015 hPa | 0 mm | 2.24 m/s, 356° | - | - |
| 1777649900 | 20.56° C | 49% | 1015 hPa | 0 mm | 1.34 m/s, 112° | - | - |
| 1777648728 | 20.56° C | 51% | 1014 hPa | 0 mm | 0 m/s | - | - |
| 1777648693 | 20.56° C | 51% | 1014 hPa | 0 mm | 0 m/s | - | - |
| 1777648173 | 20° C | 53% | 1014 hPa | 0 mm | 0 m/s | - | - |
| 1777648090 | 20° C | 53% | 1014 hPa | 0 mm | 0 m/s | - | - |
| 1777646275 | 18.89° C | 58% | 1014 hPa | 0 mm | 0 m/s | - | - |
| 1777646243 | 18.89° C | 58% | 1014 hPa | 0 mm | 0 m/s | - | - |
| 1777645639 | 18.33° C | 62% | 1014 hPa | 0 mm | 1.79 m/s, 39° | - | - |
| 1777643830 | 16.11° C | 68% | 1013 hPa | 0 mm | 1.34 m/s, 345° | - | - |
| 1777641719 | 14.44° C | 77% | 1013 hPa | 0 mm | 0 m/s | - | - |
| 1777640513 | 13.89° C | 81% | 1013 hPa | 0 mm | 0 m/s | - | - |
| 1777638379 | 12.22° C | 93% | 1013 hPa | 0 mm | 0 m/s | - | - |
| 1777638077 | 12.22° C | 93% | 1013 hPa | 0 mm | 0 m/s | - | - |
| 1777637474 | 11.67° C | 94% | 1012 hPa | 0 mm | 0 m/s | - | - |
| 1777636478 | 10.56° C | 95% | 1012 hPa | 0 mm | 0 m/s | - | - |
| 1777636268 | 10.56° C | 95% | 1012 hPa | 0 mm | 0 m/s | - | - |
| 1777633856 | 9.44° C | 94% | 1012 hPa | 0 mm | 0 m/s | - | - |
| 1777619988 | 12.22° C | 92% | 1012 hPa | 0 mm | 0 m/s | - | - |
| 1777619687 | 12.22° C | 91% | 1012 hPa | 0 mm | 0 m/s | - | - |
| 1777609133 | 12.78° C | 93% | 1012 hPa | 0 mm | 0 m/s | - | - |
| 1777607324 | 12.22° C | 92% | 1013 hPa | 0 mm | 0 m/s | - | - |
| 1777607022 | 12.22° C | 91% | 1013 hPa | 0 mm | 0 m/s | - | - |
| 1777605817 | 12.78° C | 91% | 1013 hPa | 0 mm | 0 m/s | - | - |
* Rain latest hour (hover to see other rain measurements)
** Current wind speed in m/s (hover to see current wind gust speed)